createdAt,value
2023-01-30T00:02:08.306Z,74.24
2023-01-30T00:04:35.864Z,74.86
2023-01-30T00:07:03.495Z,74.26
2023-01-30T00:09:31.097Z,73.74
2023-01-30T00:11:58.736Z,75.14
2023-01-30T00:14:27.725Z,75.75
2023-01-30T00:16:55.337Z,75.85
2023-01-30T00:19:22.930Z,76.00
2023-01-30T00:21:50.591Z,76.30
2023-01-30T00:24:21.555Z,76.95
2023-01-30T00:26:49.289Z,77.10
2023-01-30T00:29:16.873Z,77.59
2023-01-30T00:31:46.108Z,77.57
2023-01-30T00:34:13.817Z,77.58
2023-01-30T00:36:41.461Z,77.97
2023-01-30T00:39:09.070Z,78.38
2023-01-30T00:41:50.601Z,78.62
2023-01-30T00:44:35.140Z,78.37
2023-01-30T00:47:08.664Z,78.21
2023-01-30T00:49:36.952Z,78.79
2023-01-30T00:52:05.139Z,79.72
2023-01-30T00:54:32.678Z,79.80
2023-01-30T00:57:00.344Z,80.06
2023-01-30T00:59:28.458Z,80.14
2023-01-30T01:01:56.257Z,80.49
2023-01-30T01:04:25.350Z,80.76
2023-01-30T01:06:52.985Z,81.44
2023-01-30T01:09:20.588Z,80.87
2023-01-30T01:11:48.203Z,81.08
2023-01-30T01:14:15.826Z,80.45
2023-01-30T01:16:43.554Z,80.78
2023-01-30T01:19:11.158Z,80.91
2023-01-30T01:21:40.043Z,80.49
2023-01-30T01:24:08.433Z,80.89
2023-01-30T01:26:36.042Z,80.64
2023-01-30T01:29:03.590Z,80.83
2023-01-30T01:31:31.340Z,81.33
2023-01-30T01:33:58.999Z,81.26
2023-01-30T01:36:52.048Z,81.50
2023-01-30T01:39:15.715Z,81.55
2023-01-30T01:41:42.397Z,81.42
2023-01-30T01:44:11.858Z,81.24
2023-01-30T01:46:43.871Z,81.26
2023-01-30T01:49:16.466Z,81.14
2023-01-30T01:51:51.603Z,80.57
2023-01-30T01:54:28.519Z,80.78
2023-01-30T01:56:56.164Z,81.00
2023-01-30T01:59:29.330Z,81.28
2023-01-30T02:02:01.350Z,80.98
2023-01-30T02:04:49.424Z,80.90
2023-01-30T02:07:19.543Z,81.01
2023-01-30T02:09:48.994Z,81.15
2023-01-30T02:12:16.619Z,81.24
2023-01-30T02:14:45.120Z,80.12
2023-01-30T02:17:12.792Z,80.03
2023-01-30T02:19:51.357Z,79.51
2023-01-30T02:22:40.870Z,79.11
2023-01-30T02:25:50.628Z,78.88
2023-01-30T02:29:00.576Z,79.27
2023-01-30T02:31:36.897Z,79.83
2023-01-30T02:34:23.092Z,79.04
2023-01-30T02:37:02.237Z,78.81
2023-01-30T02:39:39.905Z,79.22
2023-01-30T02:42:20.474Z,79.34
2023-01-30T02:44:53.872Z,79.53
2023-01-30T02:47:54.425Z,80.15
2023-01-30T02:50:26.857Z,81.50
2023-01-30T02:52:55.176Z,81.98
2023-01-30T02:55:25.152Z,82.83
2023-01-30T02:57:53.048Z,82.54
2023-01-30T03:00:24.553Z,82.50
2023-01-30T03:03:22.564Z,82.14
2023-01-30T03:06:19.159Z,82.34
2023-01-30T03:09:00.911Z,82.42
2023-01-30T03:11:39.893Z,82.83
2023-01-30T03:14:15.111Z,82.61
2023-01-30T03:16:42.993Z,82.74
2023-01-30T03:19:13.888Z,83.04
2023-01-30T03:21:42.311Z,83.01
2023-01-30T03:24:09.975Z,83.36
2023-01-30T03:26:41.557Z,83.12
2023-01-30T03:29:09.198Z,83.17
2023-01-30T03:31:36.963Z,83.08
2023-01-30T03:34:04.870Z,83.07
2023-01-30T03:36:33.909Z,82.65
2023-01-30T03:39:01.573Z,83.24
2023-01-30T03:41:29.273Z,83.33
2023-01-30T03:43:56.868Z,82.56
2023-01-30T03:46:24.793Z,81.89
2023-01-30T03:48:52.407Z,82.90
2023-01-30T03:51:20.443Z,82.51
2023-01-30T03:53:49.962Z,82.70
2023-01-30T03:56:17.824Z,83.91
2023-01-30T03:58:45.538Z,84.02
2023-01-30T04:01:13.173Z,83.26
2023-01-30T04:03:40.762Z,83.23
2023-01-30T04:06:08.629Z,83.75
2023-01-30T04:08:36.223Z,83.35
2023-01-30T04:11:05.519Z,83.37
2023-01-30T04:13:33.101Z,82.97
2023-01-30T04:16:17.714Z,82.65
2023-01-30T04:18:45.959Z,81.85
2023-01-30T04:21:13.793Z,82.41
2023-01-30T04:23:41.905Z,82.45
2023-01-30T04:26:11.466Z,81.93
2023-01-30T04:28:39.429Z,81.66
2023-01-30T04:31:07.722Z,81.95
2023-01-30T04:33:36.109Z,82.05
2023-01-30T04:36:05.676Z,82.06
2023-01-30T04:38:34.271Z,81.64
2023-01-30T04:41:02.205Z,81.81
2023-01-30T04:43:31.943Z,82.09
2023-01-30T04:45:59.572Z,81.82
2023-01-30T04:48:27.750Z,81.61
2023-01-30T04:50:58.126Z,82.61
2023-01-30T04:53:26.540Z,82.63
2023-01-30T04:55:54.139Z,82.73
2023-01-30T04:58:21.788Z,83.00
2023-01-30T05:00:50.821Z,83.18
2023-01-30T05:03:18.747Z,83.33
2023-01-30T05:05:48.043Z,83.40
2023-01-30T05:08:16.115Z,83.34
2023-01-30T05:10:43.774Z,83.58
2023-01-30T05:13:11.425Z,83.70
2023-01-30T05:15:40.341Z,83.41
2023-01-30T05:18:09.285Z,83.48
2023-01-30T05:20:36.825Z,83.28
2023-01-30T05:23:04.396Z,82.77
2023-01-30T05:25:32.170Z,82.94
2023-01-30T05:28:00.003Z,82.71
2023-01-30T05:30:27.612Z,82.55
2023-01-30T05:32:55.288Z,82.33
2023-01-30T05:35:24.195Z,82.40
2023-01-30T05:37:51.886Z,82.10
2023-01-30T05:40:19.693Z,82.44
2023-01-30T05:42:48.867Z,82.07
2023-01-30T05:45:17.472Z,82.11
2023-01-30T05:47:45.182Z,82.58
2023-01-30T05:50:12.842Z,82.32
2023-01-30T05:52:41.756Z,82.37
2023-01-30T05:55:10.449Z,82.33
2023-01-30T05:57:37.999Z,82.03
2023-01-30T06:00:07.056Z,81.58
2023-01-30T06:02:34.681Z,81.93
2023-01-30T06:05:02.353Z,82.02
2023-01-30T06:07:30.017Z,82.22
2023-01-30T06:09:58.948Z,81.80
2023-01-30T06:12:26.506Z,81.53
2023-01-30T06:14:54.090Z,81.91
2023-01-30T06:17:21.659Z,82.22
2023-01-30T06:19:49.245Z,82.10
2023-01-30T06:22:16.804Z,82.54
2023-01-30T06:24:44.377Z,82.09
2023-01-30T06:27:14.340Z,81.92
2023-01-30T06:29:41.938Z,81.56
2023-01-30T06:32:10.580Z,81.42
2023-01-30T06:34:38.125Z,81.80
2023-01-30T06:37:05.690Z,81.54
2023-01-30T06:39:33.235Z,82.55
2023-01-30T06:42:00.748Z,82.58
2023-01-30T06:44:29.607Z,82.30
2023-01-30T06:46:57.155Z,82.51
2023-01-30T06:49:24.712Z,82.70
2023-01-30T06:51:52.250Z,82.75
2023-01-30T06:54:20.062Z,82.58
2023-01-30T06:56:47.651Z,82.06
2023-01-30T06:59:15.218Z,81.92
2023-01-30T07:01:44.313Z,82.08
2023-01-30T07:04:13.931Z,81.51
2023-01-30T07:06:41.520Z,81.91
2023-01-30T07:09:09.094Z,81.71
2023-01-30T07:11:36.680Z,81.79
2023-01-30T07:14:06.232Z,81.53
2023-01-30T07:16:33.951Z,81.84
2023-01-30T07:19:02.955Z,81.25
2023-01-30T07:21:30.579Z,81.42
2023-01-30T07:23:59.383Z,81.85
2023-01-30T07:26:27.007Z,82.23
2023-01-30T07:28:54.607Z,82.91
2023-01-30T07:31:22.217Z,82.39
2023-01-30T07:33:49.814Z,82.39
2023-01-30T07:36:18.820Z,82.71
2023-01-30T07:38:49.085Z,82.69
2023-01-30T07:41:16.785Z,82.95
2023-01-30T07:43:44.371Z,82.60
2023-01-30T07:46:12.111Z,83.31
2023-01-30T07:48:39.697Z,82.92
2023-01-30T07:51:07.789Z,82.99
2023-01-30T07:53:36.714Z,83.47
2023-01-30T07:56:08.190Z,83.27
2023-01-30T07:58:35.969Z,83.28
2023-01-30T08:01:03.711Z,83.33
2023-01-30T08:03:31.299Z,82.92
2023-01-30T08:05:58.875Z,82.75
2023-01-30T08:08:26.429Z,82.76
2023-01-30T08:10:55.312Z,83.65
2023-01-30T08:13:22.997Z,83.96
2023-01-30T08:15:50.850Z,84.29
2023-01-30T08:18:18.510Z,84.57
2023-01-30T08:20:46.133Z,84.79
2023-01-30T08:23:13.670Z,85.35
2023-01-30T08:25:41.186Z,84.69
2023-01-30T08:28:10.052Z,84.60
2023-01-30T08:30:37.652Z,85.01
2023-01-30T08:33:05.422Z,84.76
2023-01-30T08:35:32.949Z,84.32
2023-01-30T08:38:00.639Z,84.22
2023-01-30T08:40:28.293Z,84.32
2023-01-30T08:42:56.439Z,83.99
2023-01-30T08:45:25.545Z,83.31
2023-01-30T08:47:53.171Z,83.35
2023-01-30T08:50:21.161Z,82.67
2023-01-30T08:52:48.822Z,82.27
2023-01-30T08:55:16.614Z,82.73
2023-01-30T08:57:44.243Z,81.97
2023-01-30T09:00:13.597Z,82.16
2023-01-30T09:02:42.692Z,81.41
2023-01-30T09:05:11.775Z,81.38
2023-01-30T09:07:39.399Z,80.88
2023-01-30T09:10:07.712Z,81.39
2023-01-30T09:12:35.274Z,81.50
2023-01-30T09:15:02.945Z,81.50
2023-01-30T09:17:30.540Z,81.38
2023-01-30T09:19:59.506Z,81.45
2023-01-30T09:22:27.430Z,80.75
2023-01-30T09:24:55.007Z,80.50
2023-01-30T09:27:22.583Z,80.69
2023-01-30T09:29:50.128Z,80.27
2023-01-30T09:32:17.777Z,80.80
2023-01-30T09:34:45.330Z,80.59
2023-01-30T09:37:14.367Z,80.63
2023-01-30T09:39:41.933Z,80.50
2023-01-30T09:42:39.631Z,80.04
2023-01-30T09:45:41.411Z,80.19
2023-01-30T09:48:17.813Z,79.70
2023-01-30T09:51:03.941Z,79.39
2023-01-30T09:53:41.453Z,78.89
2023-01-30T09:56:09.200Z,78.98
2023-01-30T09:58:45.537Z,78.83
2023-01-30T10:01:21.998Z,78.30
2023-01-30T10:04:02.538Z,78.76
2023-01-30T10:06:32.036Z,78.46
2023-01-30T10:09:07.041Z,77.83
2023-01-30T10:11:50.003Z,78.29
2023-01-30T10:14:36.044Z,77.33
2023-01-30T10:17:19.348Z,77.66
2023-01-30T10:20:04.039Z,76.92
2023-01-30T10:22:42.674Z,77.03
2023-01-30T10:25:28.758Z,77.06
2023-01-30T10:28:02.567Z,76.44
2023-01-30T10:30:30.560Z,76.03
2023-01-30T10:33:03.159Z,76.61
2023-01-30T10:35:35.175Z,76.32
2023-01-30T10:38:13.561Z,76.57
2023-01-30T10:40:47.502Z,76.63
2023-01-30T10:43:21.926Z,77.56
2023-01-30T10:45:58.566Z,78.30
2023-01-30T10:48:59.273Z,79.02
2023-01-30T10:51:39.280Z,79.05
2023-01-30T10:54:17.445Z,76.58
2023-01-30T10:56:55.547Z,77.06
2023-01-30T10:59:25.440Z,77.32
2023-01-30T11:02:04.920Z,76.07
2023-01-30T11:04:39.708Z,77.97
2023-01-30T11:07:07.887Z,78.20
2023-01-30T11:09:43.127Z,76.94
2023-01-30T11:12:12.461Z,76.96
2023-01-30T11:14:54.657Z,74.26
2023-01-30T11:17:29.694Z,74.12
2023-01-30T11:19:58.628Z,73.99
2023-01-30T11:22:27.558Z,74.56
2023-01-30T11:25:03.217Z,74.11
2023-01-30T11:27:35.007Z,71.26
2023-01-30T11:30:13.039Z,71.31
2023-01-30T11:32:40.760Z,72.87
2023-01-30T11:35:58.777Z,75.16
2023-01-30T11:38:28.912Z,74.77
2023-01-30T11:41:05.519Z,75.50
2023-01-30T11:43:37.096Z,76.07
2023-01-30T11:46:06.489Z,76.46
2023-01-30T11:49:31.992Z,75.37
2023-01-30T11:51:25.620Z,74.67
2023-01-30T11:53:58.124Z,75.06
2023-01-30T11:56:33.551Z,75.71
2023-01-30T11:59:05.136Z,77.23
2023-01-30T12:01:35.244Z,78.54
2023-01-30T12:04:07.769Z,78.41
2023-01-30T12:06:38.017Z,77.89
2023-01-30T12:09:06.517Z,78.62
2023-01-30T12:11:44.977Z,78.83
2023-01-30T12:14:38.713Z,78.70
2023-01-30T12:17:15.775Z,78.37
2023-01-30T12:19:53.130Z,78.35
2023-01-30T12:22:27.741Z,79.12
2023-01-30T12:25:00.106Z,79.05
2023-01-30T12:27:38.803Z,79.48
2023-01-30T12:30:22.157Z,79.56
2023-01-30T12:32:50.096Z,79.59
2023-01-30T12:35:19.920Z,78.71
2023-01-30T12:38:01.905Z,78.88
2023-01-30T12:40:37.673Z,79.80
2023-01-30T12:43:23.888Z,79.95
2023-01-30T12:46:04.372Z,79.89
2023-01-30T12:49:10.372Z,80.26
2023-01-30T12:51:59.411Z,79.84
2023-01-30T12:54:40.582Z,80.50
2023-01-30T12:57:25.561Z,81.99
2023-01-30T13:00:04.654Z,82.35
2023-01-30T13:02:55.900Z,82.89
2023-01-30T13:05:36.305Z,82.60
2023-01-30T13:08:24.824Z,82.34
2023-01-30T13:11:00.298Z,83.39
2023-01-30T13:13:36.069Z,83.13
2023-01-30T13:16:11.945Z,83.23
2023-01-30T13:18:48.843Z,84.03
2023-01-30T13:21:20.682Z,82.99
2023-01-30T13:24:02.497Z,82.92
2023-01-30T13:26:34.869Z,83.44
2023-01-30T13:29:05.912Z,82.92
2023-01-30T13:31:39.024Z,81.83
2023-01-30T13:34:13.583Z,81.67
2023-01-30T13:36:45.653Z,80.53
2023-01-30T13:41:53.972Z,81.16
2023-01-30T13:44:25.760Z,78.74
2023-01-30T13:46:55.396Z,76.01
2023-01-30T13:49:31.693Z,76.67
2023-01-30T13:52:04.694Z,76.96
2023-01-30T13:54:48.062Z,75.88
2023-01-30T13:57:26.611Z,76.92
2023-01-30T14:00:19.426Z,77.79
2023-01-30T14:03:24.892Z,77.81
2023-01-30T14:06:31.805Z,78.16
2023-01-30T14:09:02.391Z,78.59
2023-01-30T14:11:34.574Z,77.29
2023-01-30T14:14:05.347Z,77.65
2023-01-30T14:16:47.930Z,78.05
2023-01-30T14:19:32.943Z,78.32
2023-01-30T14:22:06.349Z,78.78
2023-01-30T14:24:33.984Z,78.26
2023-01-30T14:27:04.072Z,78.67
2023-01-30T14:29:53.749Z,78.83
2023-01-30T14:32:53.242Z,79.77
2023-01-30T14:35:26.560Z,79.57
2023-01-30T14:38:14.001Z,79.33
2023-01-30T14:41:03.920Z,79.71
2023-01-30T14:43:52.334Z,80.13
2023-01-30T14:46:54.248Z,80.07
2023-01-30T14:49:30.534Z,80.68
2023-01-30T14:51:58.338Z,80.68
2023-01-30T14:54:41.769Z,81.00
2023-01-30T14:57:27.428Z,80.52
2023-01-30T15:00:18.441Z,80.55
2023-01-30T15:02:52.492Z,80.13
2023-01-30T15:05:26.193Z,80.80
2023-01-30T15:07:58.950Z,80.61
2023-01-30T15:10:49.597Z,81.95
2023-01-30T15:13:46.809Z,81.83
2023-01-30T15:16:32.647Z,82.99
2023-01-30T15:19:15.603Z,84.04
2023-01-30T15:21:55.340Z,84.35
2023-01-30T15:24:46.707Z,84.25
2023-01-30T15:27:22.417Z,84.68
2023-01-30T15:30:17.223Z,84.49
2023-01-30T15:32:45.983Z,84.44
2023-01-30T15:35:25.417Z,84.25
2023-01-30T15:37:55.128Z,84.91
2023-01-30T15:40:25.712Z,84.90
2023-01-30T15:43:13.066Z,84.97
2023-01-30T15:45:52.387Z,84.73
2023-01-30T15:48:40.778Z,85.57
2023-01-30T15:51:13.027Z,84.93
2023-01-30T15:53:43.832Z,85.84
2023-01-30T15:56:17.530Z,84.97
2023-01-30T15:58:46.941Z,84.42
2023-01-30T16:01:20.546Z,85.18
2023-01-30T16:03:50.932Z,85.44
2023-01-30T16:06:30.306Z,84.97
2023-01-30T16:09:00.432Z,84.46
2023-01-30T16:11:36.840Z,84.74
2023-01-30T16:14:07.289Z,84.35
2023-01-30T16:16:36.812Z,85.92
2023-01-30T16:19:09.003Z,84.09
2023-01-30T16:21:40.051Z,84.75
2023-01-30T16:24:15.210Z,84.58
2023-01-30T16:26:46.282Z,84.43
2023-01-30T16:29:18.779Z,84.39
2023-01-30T16:31:48.931Z,84.98
2023-01-30T16:34:29.198Z,84.04
2023-01-30T16:37:07.518Z,83.48
2023-01-30T16:39:36.779Z,84.61
2023-01-30T16:42:21.253Z,84.77
2023-01-30T16:44:50.180Z,84.66
2023-01-30T16:47:24.674Z,85.63
2023-01-30T16:49:53.754Z,85.55
2023-01-30T16:52:24.388Z,85.21
2023-01-30T16:54:54.335Z,84.61
2023-01-30T16:57:36.388Z,84.71
2023-01-30T17:00:10.066Z,85.22
2023-01-30T17:02:40.975Z,85.40
2023-01-30T17:05:20.419Z,85.11
2023-01-30T17:07:49.421Z,84.58
2023-01-30T17:10:53.674Z,84.63
2023-01-30T17:13:36.743Z,83.50
2023-01-30T17:16:33.384Z,84.61
2023-01-30T17:19:01.235Z,84.64
2023-01-30T17:21:32.103Z,84.66
2023-01-30T17:24:02.646Z,85.15
2023-01-30T17:26:31.519Z,85.37
2023-01-30T17:28:59.747Z,85.60
2023-01-30T17:31:27.484Z,85.75
2023-01-30T17:33:56.440Z,85.79
2023-01-30T17:36:27.182Z,86.06
2023-01-30T17:38:54.909Z,86.63
2023-01-30T17:41:25.082Z,86.54
2023-01-30T17:43:52.825Z,85.80
2023-01-30T17:46:24.768Z,85.98
2023-01-30T17:48:52.690Z,85.96
2023-01-30T17:51:21.603Z,86.05
2023-01-30T17:53:49.197Z,86.79
2023-01-30T17:56:19.708Z,86.42
2023-01-30T17:58:47.268Z,86.54
2023-01-30T18:01:16.160Z,86.44
2023-01-30T18:03:44.972Z,86.42
2023-01-30T18:06:14.423Z,86.11
2023-01-30T18:08:43.874Z,86.56
2023-01-30T18:11:14.752Z,86.59
2023-01-30T18:13:43.562Z,86.00
2023-01-30T18:16:16.583Z,86.04
2023-01-30T18:18:44.254Z,86.72
2023-01-30T18:21:12.128Z,85.46
2023-01-30T18:23:39.760Z,86.71
2023-01-30T18:26:11.596Z,86.22
2023-01-30T18:28:39.682Z,86.21
2023-01-30T18:31:07.545Z,85.89
2023-01-30T18:33:35.185Z,85.77
2023-01-30T18:36:05.774Z,86.04
2023-01-30T18:38:33.411Z,86.09
2023-01-30T18:41:08.715Z,86.60
2023-01-30T18:43:36.662Z,86.84
2023-01-30T18:46:06.289Z,87.27
2023-01-30T18:48:34.689Z,87.09
2023-01-30T18:51:07.537Z,87.27
2023-01-30T18:53:35.643Z,88.13
2023-01-30T18:56:03.279Z,87.68
2023-01-30T18:58:32.680Z,88.28
2023-01-30T19:01:01.106Z,88.45
2023-01-30T19:03:28.765Z,87.93
2023-01-30T19:05:56.306Z,88.65
2023-01-30T19:08:25.931Z,88.28
2023-01-30T19:10:53.750Z,88.26
2023-01-30T19:13:36.687Z,87.91
2023-01-30T19:16:06.851Z,88.43
2023-01-30T19:18:34.926Z,88.01
2023-01-30T19:21:03.290Z,88.06
2023-01-30T19:23:33.857Z,87.89
2023-01-30T19:26:01.789Z,87.96
2023-01-30T19:28:31.304Z,88.24
2023-01-30T19:30:59.693Z,87.43
2023-01-30T19:33:28.883Z,88.43
2023-01-30T19:35:56.655Z,87.32
2023-01-30T19:38:24.437Z,86.85
2023-01-30T19:40:52.103Z,87.06
2023-01-30T19:43:19.878Z,86.30
2023-01-30T19:45:58.108Z,86.53
2023-01-30T19:48:26.490Z,86.10
2023-01-30T19:50:55.558Z,85.35
2023-01-30T19:53:23.378Z,86.17
2023-01-30T19:55:51.411Z,86.13
2023-01-30T19:58:19.580Z,86.68
2023-01-30T20:00:49.242Z,85.76
2023-01-30T20:03:17.099Z,86.00
2023-01-30T20:05:45.168Z,85.74
2023-01-30T20:08:25.403Z,85.71
2023-01-30T20:11:02.375Z,85.77
2023-01-30T20:13:30.284Z,85.73
2023-01-30T20:16:06.157Z,86.29
2023-01-30T20:18:37.336Z,86.13
2023-01-30T20:21:07.837Z,85.56
2023-01-30T20:23:37.468Z,85.82
2023-01-30T20:26:06.170Z,85.07
2023-01-30T20:28:34.584Z,85.06
2023-01-30T20:31:09.231Z,84.89
2023-01-30T20:33:37.674Z,84.84
2023-01-30T20:36:08.084Z,84.08
2023-01-30T20:38:39.530Z,83.87
2023-01-30T20:41:09.417Z,83.96
2023-01-30T20:43:38.757Z,83.67
2023-01-30T20:46:09.040Z,83.45
2023-01-30T20:48:38.526Z,83.75
2023-01-30T20:51:08.443Z,83.82
2023-01-30T20:53:38.867Z,84.49
2023-01-30T20:56:09.316Z,83.66
2023-01-30T20:58:38.426Z,83.76
2023-01-30T21:01:11.400Z,83.78
2023-01-30T21:03:40.098Z,83.92
2023-01-30T21:06:08.006Z,84.47
2023-01-30T21:08:39.469Z,84.41
2023-01-30T21:11:08.884Z,84.44
2023-01-30T21:13:38.292Z,84.03
2023-01-30T21:16:08.407Z,84.34
2023-01-30T21:18:39.359Z,84.31
2023-01-30T21:21:07.664Z,84.58
2023-01-30T21:23:36.993Z,84.73
2023-01-30T21:26:06.614Z,84.44
2023-01-30T21:28:34.283Z,84.37
2023-01-30T21:31:06.595Z,84.66
2023-01-30T21:33:34.419Z,84.38
2023-01-30T21:36:02.671Z,83.07
2023-01-30T21:38:47.967Z,83.85
2023-01-30T21:41:35.874Z,83.78
2023-01-30T21:44:04.159Z,83.64
2023-01-30T21:46:34.502Z,83.82
2023-01-30T21:49:02.227Z,82.51
2023-01-30T21:51:30.416Z,83.76
2023-01-30T21:53:57.980Z,83.42
2023-01-30T21:56:27.241Z,83.73
2023-01-30T21:58:55.763Z,83.48
2023-01-30T22:01:23.603Z,84.16
2023-01-30T22:03:51.355Z,84.37
2023-01-30T22:06:18.980Z,84.08
2023-01-30T22:08:46.741Z,84.54
2023-01-30T22:11:16.198Z,84.97
2023-01-30T22:13:45.245Z,85.05
2023-01-30T22:16:14.336Z,85.45
2023-01-30T22:18:43.989Z,85.25
2023-01-30T22:21:13.286Z,84.82
2023-01-30T22:23:42.769Z,84.44
2023-01-30T22:26:11.468Z,84.73
2023-01-30T22:28:39.746Z,84.32
2023-01-30T22:31:10.810Z,84.41
2023-01-30T22:33:38.768Z,84.18
2023-01-30T22:36:08.602Z,84.19
2023-01-30T22:38:36.306Z,83.92
2023-01-30T22:41:07.012Z,83.08
2023-01-30T22:43:36.143Z,83.86
2023-01-30T22:46:06.041Z,83.19
2023-01-30T22:48:35.928Z,83.17
2023-01-30T22:51:05.686Z,83.73
2023-01-30T22:53:34.297Z,83.40
2023-01-30T22:56:03.580Z,83.93
2023-01-30T22:58:31.242Z,83.72
2023-01-30T23:01:05.893Z,83.58
2023-01-30T23:03:35.856Z,83.23
2023-01-30T23:06:06.807Z,83.25
2023-01-30T23:08:36.139Z,82.83
2023-01-30T23:11:08.592Z,82.33
2023-01-30T23:13:36.971Z,82.47
2023-01-30T23:16:06.339Z,82.73
2023-01-30T23:18:52.966Z,82.43
2023-01-30T23:21:20.710Z,82.63
2023-01-30T23:23:48.615Z,82.37
2023-01-30T23:26:16.247Z,82.70
2023-01-30T23:28:43.802Z,82.76
2023-01-30T23:31:13.317Z,82.93
2023-01-30T23:33:42.498Z,82.65
2023-01-30T23:36:36.526Z,82.37
2023-01-30T23:39:05.355Z,82.85
2023-01-30T23:41:36.765Z,82.73
2023-01-30T23:44:05.370Z,82.50
2023-01-30T23:46:34.356Z,82.62
2023-01-30T23:49:05.633Z,82.05
2023-01-30T23:51:35.483Z,82.13
2023-01-30T23:54:04.594Z,81.88
2023-01-30T23:56:35.467Z,81.53
2023-01-30T23:59:03.697Z,81.95
